createdAt,value
2023-03-03T00:02:42.752Z,6.11
2023-03-03T00:07:45.575Z,5.99
2023-03-03T00:12:49.647Z,5.68
2023-03-03T00:17:51.824Z,5.94
2023-03-03T00:22:53.400Z,5.91
2023-03-03T00:27:54.732Z,5.88
2023-03-03T00:32:56.218Z,5.79
2023-03-03T00:38:00.454Z,5.81
2023-03-03T00:43:12.205Z,5.69
2023-03-03T00:48:22.771Z,5.64
2023-03-03T00:53:30.014Z,5.69
2023-03-03T00:58:31.541Z,5.63
2023-03-03T01:03:32.980Z,5.54
2023-03-03T01:08:34.374Z,5.61
2023-03-03T01:13:38.183Z,5.50
2023-03-03T01:18:41.722Z,5.69
2023-03-03T01:23:43.625Z,5.59
2023-03-03T01:28:44.961Z,5.56
2023-03-03T01:33:46.641Z,5.44
2023-03-03T01:38:47.978Z,5.41
2023-03-03T01:43:50.421Z,5.38
2023-03-03T01:48:58.316Z,5.36
2023-03-03T01:54:03.293Z,5.29
2023-03-03T01:59:12.524Z,5.28
2023-03-03T02:04:15.223Z,5.11
2023-03-03T02:09:44.267Z,5.24
2023-03-03T02:14:45.968Z,5.21
2023-03-03T02:20:07.780Z,5.27
2023-03-03T02:25:14.970Z,5.25
2023-03-03T02:30:20.057Z,5.22
2023-03-03T02:35:33.693Z,5.20
2023-03-03T02:40:40.923Z,5.08
2023-03-03T02:45:44.299Z,4.93
2023-03-03T02:50:45.692Z,4.97
2023-03-03T02:55:47.230Z,5.00
2023-03-03T03:00:49.077Z,4.85
2023-03-03T03:05:50.730Z,4.92
2023-03-03T03:10:52.274Z,4.86
2023-03-03T03:15:54.183Z,4.81
2023-03-03T03:20:55.544Z,4.76
2023-03-03T03:25:56.861Z,4.72
2023-03-03T03:30:58.572Z,4.71
2023-03-03T03:36:00.128Z,4.73
2023-03-03T03:41:01.686Z,4.57
2023-03-03T03:46:03.374Z,4.47
2023-03-03T03:51:05.141Z,4.49
2023-03-03T03:56:07.325Z,4.45
2023-03-03T04:01:09.106Z,4.41
2023-03-03T04:06:10.507Z,4.43
2023-03-03T04:11:12.033Z,4.40
2023-03-03T04:16:13.521Z,4.40
2023-03-03T04:21:15.764Z,4.28
2023-03-03T04:26:17.228Z,4.28
2023-03-03T04:31:20.429Z,4.20
2023-03-03T04:36:22.171Z,4.13
2023-03-03T04:41:23.603Z,4.08
2023-03-03T04:46:25.324Z,4.04
2023-03-03T04:51:26.842Z,4.00
2023-03-03T04:56:31.384Z,3.97
2023-03-03T05:01:33.033Z,3.88
2023-03-03T05:06:34.657Z,3.88
2023-03-03T05:11:36.395Z,3.72
2023-03-03T05:16:37.914Z,3.72
2023-03-03T05:21:42.755Z,3.72
2023-03-03T05:26:44.550Z,3.65
2023-03-03T05:31:46.050Z,3.60
2023-03-03T05:36:47.852Z,3.50
2023-03-03T05:41:49.275Z,3.49
2023-03-03T05:46:50.659Z,3.48
2023-03-03T05:51:52.187Z,3.50
2023-03-03T05:56:53.657Z,3.51
2023-03-03T06:01:55.071Z,3.53
2023-03-03T06:06:56.491Z,3.64
2023-03-03T06:11:57.975Z,3.65
2023-03-03T06:16:59.438Z,3.72
2023-03-03T06:22:01.056Z,3.62
2023-03-03T06:27:02.539Z,3.60
2023-03-03T06:32:05.197Z,3.68
2023-03-03T06:37:06.956Z,3.72
2023-03-03T06:42:09.482Z,3.75
2023-03-03T06:47:10.973Z,3.68
2023-03-03T06:52:24.401Z,3.65
2023-03-03T06:57:31.953Z,3.71
2023-03-03T07:02:33.448Z,3.86
2023-03-03T07:07:35.224Z,3.76
2023-03-03T07:12:36.642Z,3.86
2023-03-03T07:17:50.924Z,3.81
2023-03-03T07:22:53.577Z,4.08
2023-03-03T07:28:00.770Z,4.17
2023-03-03T07:33:02.210Z,4.07
2023-03-03T07:38:12.184Z,4.09
2023-03-03T07:43:37.241Z,4.18
2023-03-03T07:48:42.008Z,3.98
2023-03-03T07:53:43.604Z,4.27
2023-03-03T07:58:45.083Z,4.22
2023-03-03T08:03:49.454Z,4.35
2023-03-03T08:08:51.490Z,4.40
2023-03-03T08:13:53.494Z,4.38
2023-03-03T08:18:59.093Z,4.46
2023-03-03T08:24:00.927Z,4.59
2023-03-03T08:29:02.571Z,4.71
2023-03-03T08:34:04.480Z,4.80
2023-03-03T08:39:07.119Z,4.55
2023-03-03T08:44:08.510Z,4.91
2023-03-03T08:49:10.185Z,5.01
2023-03-03T08:54:12.216Z,5.35
2023-03-03T08:59:13.726Z,5.42
2023-03-03T09:04:15.382Z,5.58
2023-03-03T09:09:16.970Z,5.75
2023-03-03T09:14:19.243Z,5.74
2023-03-03T09:19:31.079Z,5.90
2023-03-03T09:24:36.207Z,6.04
2023-03-03T09:29:39.461Z,6.09
2023-03-03T09:34:42.639Z,6.23
2023-03-03T09:39:45.962Z,6.33
2023-03-03T09:45:09.176Z,6.72
2023-03-03T09:50:34.777Z,7.28
2023-03-03T09:55:54.867Z,8.03
2023-03-03T10:01:02.998Z,8.58
2023-03-03T10:06:22.564Z,9.41
2023-03-03T10:11:43.082Z,10.45
2023-03-03T10:17:09.637Z,12.62
2023-03-03T10:22:20.465Z,14.11
2023-03-03T10:27:24.979Z,13.85
2023-03-03T10:32:41.956Z,14.64
2023-03-03T10:37:52.284Z,13.94
2023-03-03T10:43:33.535Z,14.47
2023-03-03T10:48:39.666Z,15.76
2023-03-03T10:54:06.712Z,18.85
2023-03-03T10:59:25.276Z,20.63
2023-03-03T11:05:20.799Z,22.12
2023-03-03T11:10:38.023Z,22.59
2023-03-03T11:15:58.521Z,24.00
2023-03-03T11:21:18.949Z,24.53
2023-03-03T11:26:41.462Z,24.96
2023-03-03T11:32:08.204Z,25.71
2023-03-03T11:37:37.174Z,25.24
2023-03-03T11:43:26.445Z,26.19
2023-03-03T11:48:48.761Z,26.57
2023-03-03T11:53:59.077Z,27.59
2023-03-03T11:59:32.811Z,28.14
2023-03-03T12:04:56.175Z,28.89
2023-03-03T12:10:19.748Z,28.96
2023-03-03T12:15:28.981Z,29.05
2023-03-03T12:21:03.691Z,29.35
2023-03-03T12:26:11.107Z,29.34
2023-03-03T12:31:39.014Z,30.28
2023-03-03T12:37:09.319Z,29.89
2023-03-03T12:42:22.011Z,30.91
2023-03-03T12:47:46.126Z,31.34
2023-03-03T12:53:00.358Z,31.01
2023-03-03T12:58:40.721Z,30.97
2023-03-03T13:04:08.481Z,30.76
2023-03-03T13:09:24.338Z,30.77
2023-03-03T13:14:43.237Z,29.93
2023-03-03T13:20:02.626Z,30.00
2023-03-03T13:25:34.404Z,30.39
2023-03-03T13:30:40.417Z,30.37
2023-03-03T13:35:50.020Z,31.40
2023-03-03T13:41:04.336Z,31.48
2023-03-03T13:46:12.710Z,31.93
2023-03-03T13:51:26.574Z,32.22
2023-03-03T13:56:40.019Z,32.42
2023-03-03T14:02:15.972Z,32.54
2023-03-03T14:07:32.911Z,32.48
2023-03-03T14:12:55.480Z,32.19
2023-03-03T14:18:27.566Z,32.50
2023-03-03T14:23:48.359Z,31.68
2023-03-03T14:28:52.401Z,30.60
2023-03-03T14:34:01.258Z,30.56
2023-03-03T14:39:02.734Z,30.19
2023-03-03T14:44:29.180Z,30.27
2023-03-03T14:49:36.775Z,30.04
2023-03-03T14:54:41.392Z,29.39
2023-03-03T15:00:00.988Z,26.06
2023-03-03T15:05:27.827Z,22.98
2023-03-03T15:10:34.068Z,20.47
2023-03-03T15:15:51.524Z,19.03
2023-03-03T15:21:02.317Z,17.74
2023-03-03T15:26:13.471Z,16.83
2023-03-03T15:31:18.098Z,15.97
2023-03-03T15:36:44.948Z,15.12
2023-03-03T15:42:11.740Z,14.89
2023-03-03T15:47:24.517Z,14.26
2023-03-03T15:52:42.112Z,14.02
2023-03-03T15:57:52.705Z,13.66
2023-03-03T16:03:15.306Z,13.38
2023-03-03T16:08:26.003Z,12.92
2023-03-03T16:13:59.684Z,12.63
2023-03-03T16:19:05.910Z,12.37
2023-03-03T16:24:40.408Z,12.06
2023-03-03T16:30:05.290Z,11.88
2023-03-03T16:35:12.452Z,11.60
2023-03-03T16:40:24.904Z,11.45
2023-03-03T16:45:39.213Z,11.19
2023-03-03T16:50:57.057Z,11.13
2023-03-03T16:56:22.177Z,10.95
2023-03-03T17:01:58.961Z,10.72
2023-03-03T17:07:15.367Z,10.52
2023-03-03T17:12:25.889Z,10.37
2023-03-03T17:18:02.702Z,10.27
2023-03-03T17:23:09.983Z,10.07
2023-03-03T17:28:48.389Z,9.95
2023-03-03T17:34:05.491Z,9.66
2023-03-03T17:39:19.158Z,9.55
2023-03-03T17:44:45.350Z,9.41
2023-03-03T17:49:56.269Z,9.25
2023-03-03T17:55:31.560Z,9.11
2023-03-03T18:00:32.859Z,8.99
2023-03-03T18:06:22.594Z,8.81
2023-03-03T18:11:56.993Z,8.70
2023-03-03T18:17:16.982Z,8.41
2023-03-03T18:22:30.838Z,8.41
2023-03-03T18:27:32.220Z,8.35
2023-03-03T18:32:55.613Z,8.22
2023-03-03T18:38:17.267Z,8.09
2023-03-03T18:43:43.796Z,7.96
2023-03-03T18:49:07.492Z,7.92
2023-03-03T18:54:11.982Z,7.68
2023-03-03T18:59:52.736Z,7.71
2023-03-03T19:05:04.642Z,7.59
2023-03-03T19:10:45.075Z,7.49
2023-03-03T19:15:52.461Z,7.36
2023-03-03T19:21:01.923Z,7.28
2023-03-03T19:26:25.410Z,7.20
2023-03-03T19:31:34.325Z,7.13
2023-03-03T19:36:54.591Z,7.00
2023-03-03T19:42:12.043Z,6.85
2023-03-03T19:47:13.337Z,6.84
2023-03-03T19:52:26.375Z,6.69
2023-03-03T19:57:54.039Z,6.75
2023-03-03T20:03:39.816Z,6.58
2023-03-03T20:08:43.086Z,6.40
2023-03-03T20:13:56.711Z,6.26
2023-03-03T20:19:07.228Z,6.20
2023-03-03T20:24:41.784Z,6.17
2023-03-03T20:30:46.914Z,5.98
2023-03-03T20:36:04.077Z,6.04
2023-03-03T20:41:25.709Z,6.10
2023-03-03T20:46:34.103Z,6.00
2023-03-03T20:51:44.956Z,5.91
2023-03-03T20:57:28.878Z,5.72
2023-03-03T21:02:47.311Z,5.76
2023-03-03T21:07:58.434Z,5.72
2023-03-03T21:13:26.165Z,5.69
2023-03-03T21:18:27.973Z,5.63
2023-03-03T21:23:29.392Z,5.65
2023-03-03T21:28:33.526Z,5.58
2023-03-03T21:33:55.400Z,5.58
2023-03-03T21:38:58.286Z,5.48
2023-03-03T21:43:59.771Z,5.39
2023-03-03T21:49:01.173Z,5.39
2023-03-03T21:54:02.602Z,5.32
2023-03-03T21:59:04.300Z,5.25
2023-03-03T22:04:05.868Z,5.12
2023-03-03T22:09:08.149Z,5.12
2023-03-03T22:14:09.722Z,5.10
2023-03-03T22:19:11.181Z,5.00
2023-03-03T22:24:13.047Z,4.93
2023-03-03T22:29:16.726Z,4.98
2023-03-03T22:34:18.436Z,4.76
2023-03-03T22:39:19.873Z,4.82
2023-03-03T22:44:21.333Z,4.86
2023-03-03T22:49:22.687Z,4.87
2023-03-03T22:54:24.903Z,4.76
2023-03-03T22:59:26.308Z,4.66
2023-03-03T23:04:27.853Z,4.64
2023-03-03T23:09:29.220Z,4.59
2023-03-03T23:14:30.704Z,4.49
2023-03-03T23:19:32.069Z,4.45
2023-03-03T23:24:33.589Z,4.48
2023-03-03T23:29:35.610Z,4.23
2023-03-03T23:34:37.021Z,4.36
2023-03-03T23:39:40.498Z,4.35
2023-03-03T23:44:41.933Z,4.27
2023-03-03T23:49:43.322Z,4.30
2023-03-03T23:54:45.296Z,4.28
2023-03-03T23:59:46.801Z,4.29
